sensor_id;sensor_type;location;lat;lon;timestamp;P1;durP1;ratioP1;P2;durP2;ratioP2
1136;SDS011;557;48.466;7.950;2023-02-28T00:01:57;8.63;;;8.03;;
1136;SDS011;557;48.466;7.950;2023-02-28T00:04:48;7.93;;;7.47;;
1136;SDS011;557;48.466;7.950;2023-02-28T00:07:38;8.53;;;7.93;;
1136;SDS011;557;48.466;7.950;2023-02-28T00:10:28;8.90;;;8.40;;
1136;SDS011;557;48.466;7.950;2023-02-28T00:13:17;9.53;;;8.57;;
1136;SDS011;557;48.466;7.950;2023-02-28T00:16:05;8.37;;;7.97;;
1136;SDS011;557;48.466;7.950;2023-02-28T00:18:54;8.67;;;8.10;;
1136;SDS011;557;48.466;7.950;2023-02-28T00:21:41;9.23;;;8.53;;
1136;SDS011;557;48.466;7.950;2023-02-28T00:24:29;8.20;;;7.80;;
1136;SDS011;557;48.466;7.950;2023-02-28T00:27:17;8.47;;;7.97;;
1136;SDS011;557;48.466;7.950;2023-02-28T00:30:05;7.67;;;7.27;;
1136;SDS011;557;48.466;7.950;2023-02-28T00:32:56;7.57;;;7.17;;
1136;SDS011;557;48.466;7.950;2023-02-28T00:35:44;7.60;;;7.20;;
1136;SDS011;557;48.466;7.950;2023-02-28T00:38:34;7.70;;;7.30;;
1136;SDS011;557;48.466;7.950;2023-02-28T00:41:21;7.90;;;7.40;;
1136;SDS011;557;48.466;7.950;2023-02-28T00:44:09;7.70;;;7.20;;
1136;SDS011;557;48.466;7.950;2023-02-28T00:46:57;7.37;;;6.97;;
1136;SDS011;557;48.466;7.950;2023-02-28T00:49:45;7.63;;;7.20;;
1136;SDS011;557;48.466;7.950;2023-02-28T00:52:33;7.40;;;7.00;;
1136;SDS011;557;48.466;7.950;2023-02-28T00:55:21;11.83;;;7.53;;
1136;SDS011;557;48.466;7.950;2023-02-28T00:58:08;7.60;;;7.10;;
1136;SDS011;557;48.466;7.950;2023-02-28T01:00:57;6.63;;;6.23;;
1136;SDS011;557;48.466;7.950;2023-02-28T01:03:44;7.37;;;6.97;;
1136;SDS011;557;48.466;7.950;2023-02-28T01:06:32;6.93;;;6.50;;
1136;SDS011;557;48.466;7.950;2023-02-28T01:09:19;7.03;;;6.53;;
1136;SDS011;557;48.466;7.950;2023-02-28T01:12:06;5.93;;;5.53;;
1136;SDS011;557;48.466;7.950;2023-02-28T01:14:54;6.40;;;6.00;;
1136;SDS011;557;48.466;7.950;2023-02-28T01:17:43;6.47;;;5.87;;
1136;SDS011;557;48.466;7.950;2023-02-28T01:20:30;7.27;;;6.60;;
1136;SDS011;557;48.466;7.950;2023-02-28T01:23:18;7.13;;;6.63;;
1136;SDS011;557;48.466;7.950;2023-02-28T01:26:07;6.00;;;5.60;;
1136;SDS011;557;48.466;7.950;2023-02-28T01:28:56;6.57;;;5.97;;
1136;SDS011;557;48.466;7.950;2023-02-28T01:31:44;7.40;;;5.77;;
1136;SDS011;557;48.466;7.950;2023-02-28T01:34:33;7.00;;;6.47;;
1136;SDS011;557;48.466;7.950;2023-02-28T01:37:20;6.20;;;5.80;;
1136;SDS011;557;48.466;7.950;2023-02-28T01:40:08;5.67;;;5.27;;
1136;SDS011;557;48.466;7.950;2023-02-28T01:42:56;6.40;;;5.93;;
1136;SDS011;557;48.466;7.950;2023-02-28T01:45:43;6.07;;;5.60;;
1136;SDS011;557;48.466;7.950;2023-02-28T01:48:32;6.17;;;5.57;;
1136;SDS011;557;48.466;7.950;2023-02-28T01:51:25;6.10;;;5.60;;
1136;SDS011;557;48.466;7.950;2023-02-28T01:54:18;6.13;;;5.73;;
1136;SDS011;557;48.466;7.950;2023-02-28T01:57:09;7.30;;;5.50;;
1136;SDS011;557;48.466;7.950;2023-02-28T01:59:59;6.03;;;5.53;;
1136;SDS011;557;48.466;7.950;2023-02-28T02:02:54;5.60;;;5.20;;
1136;SDS011;557;48.466;7.950;2023-02-28T02:05:44;6.23;;;5.67;;
1136;SDS011;557;48.466;7.950;2023-02-28T02:08:34;7.00;;;5.17;;
1136;SDS011;557;48.466;7.950;2023-02-28T02:11:23;8.63;;;5.40;;
1136;SDS011;557;48.466;7.950;2023-02-28T02:17:44;5.60;;;5.20;;
1136;SDS011;557;48.466;7.950;2023-02-28T02:27:40;5.93;;;5.57;;
1136;SDS011;557;48.466;7.950;2023-02-28T02:30:55;5.60;;;5.20;;
1136;SDS011;557;48.466;7.950;2023-02-28T02:37:25;5.07;;;4.70;;
1136;SDS011;557;48.466;7.950;2023-02-28T02:40:20;6.07;;;5.57;;
1136;SDS011;557;48.466;7.950;2023-02-28T02:43:13;5.50;;;5.10;;
1136;SDS011;557;48.466;7.950;2023-02-28T02:46:05;5.50;;;5.00;;
1136;SDS011;557;48.466;7.950;2023-02-28T02:48:56;6.20;;;4.93;;
1136;SDS011;557;48.466;7.950;2023-02-28T02:51:48;6.47;;;5.77;;
1136;SDS011;557;48.466;7.950;2023-02-28T02:54:38;5.47;;;5.07;;
1136;SDS011;557;48.466;7.950;2023-02-28T02:57:30;8.53;;;4.93;;
1136;SDS011;557;48.466;7.950;2023-02-28T03:00:23;5.00;;;4.60;;
1136;SDS011;557;48.466;7.950;2023-02-28T03:03:13;4.70;;;4.40;;
1136;SDS011;557;48.466;7.950;2023-02-28T03:06:03;5.27;;;4.87;;
1136;SDS011;557;48.466;7.950;2023-02-28T03:08:53;5.63;;;5.23;;
1136;SDS011;557;48.466;7.950;2023-02-28T03:11:40;5.90;;;5.30;;
1136;SDS011;557;48.466;7.950;2023-02-28T03:14:32;5.53;;;5.03;;
1136;SDS011;557;48.466;7.950;2023-02-28T03:17:38;6.13;;;5.57;;
1136;SDS011;557;48.466;7.950;2023-02-28T03:20:38;5.10;;;4.50;;
1136;SDS011;557;48.466;7.950;2023-02-28T03:23:33;5.90;;;5.40;;
1136;SDS011;557;48.466;7.950;2023-02-28T03:26:30;9.23;;;5.20;;
1136;SDS011;557;48.466;7.950;2023-02-28T03:29:20;5.40;;;4.90;;
1136;SDS011;557;48.466;7.950;2023-02-28T03:32:16;5.50;;;4.57;;
1136;SDS011;557;48.466;7.950;2023-02-28T03:35:09;5.70;;;5.20;;
1136;SDS011;557;48.466;7.950;2023-02-28T03:38:08;4.73;;;4.33;;
1136;SDS011;557;48.466;7.950;2023-02-28T03:41:00;5.67;;;5.17;;
1136;SDS011;557;48.466;7.950;2023-02-28T03:43:53;5.37;;;4.87;;
1136;SDS011;557;48.466;7.950;2023-02-28T03:46:44;5.33;;;4.83;;
1136;SDS011;557;48.466;7.950;2023-02-28T03:49:36;7.80;;;7.10;;
1136;SDS011;557;48.466;7.950;2023-02-28T03:52:29;4.80;;;4.30;;
1136;SDS011;557;48.466;7.950;2023-02-28T03:55:20;4.93;;;4.17;;
1136;SDS011;557;48.466;7.950;2023-02-28T03:58:10;5.20;;;4.80;;
1136;SDS011;557;48.466;7.950;2023-02-28T04:01:05;5.10;;;4.60;;
1136;SDS011;557;48.466;7.950;2023-02-28T04:03:55;4.87;;;4.40;;
1136;SDS011;557;48.466;7.950;2023-02-28T04:06:43;5.90;;;5.40;;
1136;SDS011;557;48.466;7.950;2023-02-28T04:09:31;6.70;;;5.67;;
1136;SDS011;557;48.466;7.950;2023-02-28T04:12:19;4.60;;;4.20;;
1136;SDS011;557;48.466;7.950;2023-02-28T04:15:08;5.60;;;5.10;;
1136;SDS011;557;48.466;7.950;2023-02-28T04:17:58;5.93;;;4.97;;
1136;SDS011;557;48.466;7.950;2023-02-28T04:20:45;5.27;;;4.87;;
1136;SDS011;557;48.466;7.950;2023-02-28T04:23:33;5.23;;;4.83;;
1136;SDS011;557;48.466;7.950;2023-02-28T04:26:20;5.37;;;4.97;;
1136;SDS011;557;48.466;7.950;2023-02-28T04:29:08;6.07;;;5.50;;
1136;SDS011;557;48.466;7.950;2023-02-28T04:31:55;5.17;;;4.77;;
1136;SDS011;557;48.466;7.950;2023-02-28T04:34:45;5.80;;;4.83;;
1136;SDS011;557;48.466;7.950;2023-02-28T04:37:33;7.10;;;4.70;;
1136;SDS011;557;48.466;7.950;2023-02-28T04:40:22;6.90;;;4.97;;
1136;SDS011;557;48.466;7.950;2023-02-28T04:43:09;5.60;;;4.70;;
1136;SDS011;557;48.466;7.950;2023-02-28T04:45:57;6.57;;;4.67;;
1136;SDS011;557;48.466;7.950;2023-02-28T04:48:47;7.40;;;4.50;;
1136;SDS011;557;48.466;7.950;2023-02-28T04:51:36;5.77;;;4.33;;
1136;SDS011;557;48.466;7.950;2023-02-28T04:54:23;4.20;;;3.80;;
1136;SDS011;557;48.466;7.950;2023-02-28T04:57:10;7.37;;;4.90;;
1136;SDS011;557;48.466;7.950;2023-02-28T04:59:58;4.30;;;3.80;;
1136;SDS011;557;48.466;7.950;2023-02-28T05:02:45;5.30;;;4.47;;
1136;SDS011;557;48.466;7.950;2023-02-28T05:05:33;5.30;;;4.20;;
1136;SDS011;557;48.466;7.950;2023-02-28T05:08:22;4.57;;;4.10;;
1136;SDS011;557;48.466;7.950;2023-02-28T05:11:12;4.83;;;3.90;;
1136;SDS011;557;48.466;7.950;2023-02-28T05:14:03;9.17;;;4.33;;
1136;SDS011;557;48.466;7.950;2023-02-28T05:16:51;6.27;;;4.43;;
1136;SDS011;557;48.466;7.950;2023-02-28T05:19:38;4.63;;;3.57;;
1136;SDS011;557;48.466;7.950;2023-02-28T05:22:26;5.43;;;4.40;;
1136;SDS011;557;48.466;7.950;2023-02-28T05:25:16;5.50;;;3.77;;
1136;SDS011;557;48.466;7.950;2023-02-28T05:28:07;3.83;;;3.53;;
1136;SDS011;557;48.466;7.950;2023-02-28T05:30:54;5.60;;;4.20;;
1136;SDS011;557;48.466;7.950;2023-02-28T05:33:41;5.47;;;4.20;;
1136;SDS011;557;48.466;7.950;2023-02-28T05:36:29;8.70;;;5.00;;
1136;SDS011;557;48.466;7.950;2023-02-28T05:39:17;6.20;;;4.33;;
1136;SDS011;557;48.466;7.950;2023-02-28T05:42:05;5.60;;;3.77;;
1136;SDS011;557;48.466;7.950;2023-02-28T05:44:53;5.60;;;4.00;;
1136;SDS011;557;48.466;7.950;2023-02-28T05:47:49;6.03;;;4.00;;
1136;SDS011;557;48.466;7.950;2023-02-28T05:50:40;6.60;;;4.50;;
1136;SDS011;557;48.466;7.950;2023-02-28T05:53:28;4.07;;;3.33;;
1136;SDS011;557;48.466;7.950;2023-02-28T05:56:16;6.60;;;3.90;;
1136;SDS011;557;48.466;7.950;2023-02-28T05:59:04;5.50;;;4.33;;
1136;SDS011;557;48.466;7.950;2023-02-28T06:01:52;8.50;;;4.30;;
1136;SDS011;557;48.466;7.950;2023-02-28T06:04:39;5.10;;;4.10;;
1136;SDS011;557;48.466;7.950;2023-02-28T06:07:27;5.17;;;3.63;;
1136;SDS011;557;48.466;7.950;2023-02-28T06:10:14;5.90;;;3.70;;
1136;SDS011;557;48.466;7.950;2023-02-28T06:13:02;5.00;;;4.50;;
1136;SDS011;557;48.466;7.950;2023-02-28T06:15:51;5.50;;;3.90;;
1136;SDS011;557;48.466;7.950;2023-02-28T06:18:39;9.60;;;4.27;;
1136;SDS011;557;48.466;7.950;2023-02-28T06:21:26;5.70;;;4.23;;
1136;SDS011;557;48.466;7.950;2023-02-28T06:24:15;4.23;;;3.83;;
1136;SDS011;557;48.466;7.950;2023-02-28T06:27:02;7.73;;;4.30;;
1136;SDS011;557;48.466;7.950;2023-02-28T06:29:53;6.37;;;4.37;;
1136;SDS011;557;48.466;7.950;2023-02-28T06:32:42;6.43;;;5.13;;
1136;SDS011;557;48.466;7.950;2023-02-28T06:35:30;7.83;;;4.90;;
1136;SDS011;557;48.466;7.950;2023-02-28T06:38:18;9.27;;;4.83;;
1136;SDS011;557;48.466;7.950;2023-02-28T06:41:06;5.70;;;4.30;;
1136;SDS011;557;48.466;7.950;2023-02-28T06:43:54;6.93;;;4.83;;
1136;SDS011;557;48.466;7.950;2023-02-28T06:46:42;7.00;;;4.40;;
1136;SDS011;557;48.466;7.950;2023-02-28T06:49:33;8.00;;;4.50;;
1136;SDS011;557;48.466;7.950;2023-02-28T06:52:21;5.90;;;4.30;;
1136;SDS011;557;48.466;7.950;2023-02-28T06:55:09;8.20;;;4.50;;
1136;SDS011;557;48.466;7.950;2023-02-28T06:57:56;6.77;;;4.20;;
1136;SDS011;557;48.466;7.950;2023-02-28T07:00:44;8.97;;;5.00;;
1136;SDS011;557;48.466;7.950;2023-02-28T07:03:32;5.03;;;3.83;;
1136;SDS011;557;48.466;7.950;2023-02-28T07:06:22;10.13;;;4.10;;
1136;SDS011;557;48.466;7.950;2023-02-28T07:09:09;6.23;;;4.40;;
1136;SDS011;557;48.466;7.950;2023-02-28T07:11:57;7.07;;;4.23;;
1136;SDS011;557;48.466;7.950;2023-02-28T07:14:45;8.30;;;4.90;;
1136;SDS011;557;48.466;7.950;2023-02-28T07:17:33;8.77;;;4.40;;
1136;SDS011;557;48.466;7.950;2023-02-28T07:20:20;7.37;;;4.30;;
1136;SDS011;557;48.466;7.950;2023-02-28T07:23:09;9.87;;;4.33;;
1136;SDS011;557;48.466;7.950;2023-02-28T07:25:57;7.27;;;4.53;;
1136;SDS011;557;48.466;7.950;2023-02-28T07:28:45;6.13;;;4.80;;
1136;SDS011;557;48.466;7.950;2023-02-28T07:31:34;7.90;;;5.43;;
1136;SDS011;557;48.466;7.950;2023-02-28T07:34:21;7.77;;;5.27;;
1136;SDS011;557;48.466;7.950;2023-02-28T07:37:09;6.53;;;4.87;;
1136;SDS011;557;48.466;7.950;2023-02-28T07:39:58;7.27;;;4.70;;
1136;SDS011;557;48.466;7.950;2023-02-28T07:42:46;8.20;;;4.83;;
1136;SDS011;557;48.466;7.950;2023-02-28T07:45:34;8.93;;;4.43;;
1136;SDS011;557;48.466;7.950;2023-02-28T07:48:21;7.20;;;4.27;;
1136;SDS011;557;48.466;7.950;2023-02-28T07:51:08;5.33;;;4.20;;
1136;SDS011;557;48.466;7.950;2023-02-28T07:53:56;7.23;;;4.77;;
1136;SDS011;557;48.466;7.950;2023-02-28T07:56:45;7.37;;;4.33;;
1136;SDS011;557;48.466;7.950;2023-02-28T07:59:32;6.87;;;4.80;;
1136;SDS011;557;48.466;7.950;2023-02-28T08:02:20;6.47;;;4.70;;
1136;SDS011;557;48.466;7.950;2023-02-28T08:05:07;8.30;;;4.87;;
1136;SDS011;557;48.466;7.950;2023-02-28T08:07:55;8.43;;;5.40;;
1136;SDS011;557;48.466;7.950;2023-02-28T08:10:42;6.63;;;4.73;;
1136;SDS011;557;48.466;7.950;2023-02-28T08:13:31;7.60;;;4.50;;
1136;SDS011;557;48.466;7.950;2023-02-28T08:16:18;7.20;;;4.93;;
1136;SDS011;557;48.466;7.950;2023-02-28T08:19:07;6.90;;;4.07;;
1136;SDS011;557;48.466;7.950;2023-02-28T08:21:55;7.87;;;5.07;;
1136;SDS011;557;48.466;7.950;2023-02-28T08:24:43;7.00;;;4.73;;
1136;SDS011;557;48.466;7.950;2023-02-28T08:27:30;8.80;;;5.00;;
1136;SDS011;557;48.466;7.950;2023-02-28T08:30:19;9.73;;;5.37;;
1136;SDS011;557;48.466;7.950;2023-02-28T08:33:06;7.40;;;4.50;;
1136;SDS011;557;48.466;7.950;2023-02-28T08:35:54;6.63;;;5.30;;
1136;SDS011;557;48.466;7.950;2023-02-28T08:38:42;10.27;;;6.80;;
1136;SDS011;557;48.466;7.950;2023-02-28T08:41:30;8.13;;;4.90;;
1136;SDS011;557;48.466;7.950;2023-02-28T08:44:17;9.97;;;5.57;;
1136;SDS011;557;48.466;7.950;2023-02-28T08:47:06;7.57;;;4.97;;
1136;SDS011;557;48.466;7.950;2023-02-28T08:49:53;8.23;;;5.20;;
1136;SDS011;557;48.466;7.950;2023-02-28T08:52:41;8.17;;;4.83;;
1136;SDS011;557;48.466;7.950;2023-02-28T08:55:29;7.77;;;5.17;;
1136;SDS011;557;48.466;7.950;2023-02-28T08:58:16;7.27;;;4.97;;
1136;SDS011;557;48.466;7.950;2023-02-28T09:01:07;6.87;;;4.03;;
1136;SDS011;557;48.466;7.950;2023-02-28T09:03:58;9.73;;;4.70;;
1136;SDS011;557;48.466;7.950;2023-02-28T09:06:47;8.83;;;5.50;;
1136;SDS011;557;48.466;7.950;2023-02-28T09:09:34;8.10;;;4.97;;
1136;SDS011;557;48.466;7.950;2023-02-28T09:12:22;9.00;;;4.93;;
1136;SDS011;557;48.466;7.950;2023-02-28T09:15:10;8.20;;;5.50;;
1136;SDS011;557;48.466;7.950;2023-02-28T09:17:58;7.80;;;4.80;;
1136;SDS011;557;48.466;7.950;2023-02-28T09:20:47;7.10;;;5.67;;
1136;SDS011;557;48.466;7.950;2023-02-28T09:23:35;9.93;;;5.10;;
1136;SDS011;557;48.466;7.950;2023-02-28T09:26:24;6.40;;;5.17;;
1136;SDS011;557;48.466;7.950;2023-02-28T09:29:12;7.50;;;5.77;;
1136;SDS011;557;48.466;7.950;2023-02-28T09:32:00;7.90;;;5.83;;
1136;SDS011;557;48.466;7.950;2023-02-28T09:34:48;8.80;;;5.20;;
1136;SDS011;557;48.466;7.950;2023-02-28T09:37:37;8.40;;;5.10;;
1136;SDS011;557;48.466;7.950;2023-02-28T09:40:24;6.00;;;4.70;;
1136;SDS011;557;48.466;7.950;2023-02-28T09:43:13;10.97;;;5.90;;
1136;SDS011;557;48.466;7.950;2023-02-28T09:46:05;12.03;;;6.27;;
1136;SDS011;557;48.466;7.950;2023-02-28T09:48:59;8.10;;;6.20;;
1136;SDS011;557;48.466;7.950;2023-02-28T09:51:50;10.67;;;5.80;;
1136;SDS011;557;48.466;7.950;2023-02-28T09:54:43;9.43;;;5.70;;
1136;SDS011;557;48.466;7.950;2023-02-28T09:57:32;10.77;;;6.10;;
1136;SDS011;557;48.466;7.950;2023-02-28T10:00:24;8.00;;;5.63;;
1136;SDS011;557;48.466;7.950;2023-02-28T10:03:26;8.77;;;5.37;;
1136;SDS011;557;48.466;7.950;2023-02-28T10:06:19;7.30;;;5.67;;
1136;SDS011;557;48.466;7.950;2023-02-28T10:09:08;8.37;;;5.20;;
1136;SDS011;557;48.466;7.950;2023-02-28T10:12:02;7.50;;;5.20;;
1136;SDS011;557;48.466;7.950;2023-02-28T10:14:51;8.43;;;5.70;;
1136;SDS011;557;48.466;7.950;2023-02-28T10:17:42;9.00;;;6.30;;
1136;SDS011;557;48.466;7.950;2023-02-28T10:20:32;8.40;;;5.57;;
1136;SDS011;557;48.466;7.950;2023-02-28T10:23:22;8.57;;;6.83;;
1136;SDS011;557;48.466;7.950;2023-02-28T10:26:13;9.40;;;6.30;;
1136;SDS011;557;48.466;7.950;2023-02-28T10:29:04;10.13;;;5.77;;
1136;SDS011;557;48.466;7.950;2023-02-28T10:31:51;11.37;;;6.50;;
1136;SDS011;557;48.466;7.950;2023-02-28T10:34:38;10.47;;;6.30;;
1136;SDS011;557;48.466;7.950;2023-02-28T10:37:26;10.70;;;6.73;;
1136;SDS011;557;48.466;7.950;2023-02-28T10:40:25;7.97;;;5.80;;
1136;SDS011;557;48.466;7.950;2023-02-28T10:43:19;10.77;;;7.03;;
1136;SDS011;557;48.466;7.950;2023-02-28T10:46:13;13.20;;;7.50;;
1136;SDS011;557;48.466;7.950;2023-02-28T10:49:14;11.90;;;7.77;;
1136;SDS011;557;48.466;7.950;2023-02-28T10:52:04;10.07;;;6.87;;
1136;SDS011;557;48.466;7.950;2023-02-28T10:54:56;10.00;;;6.50;;
1136;SDS011;557;48.466;7.950;2023-02-28T10:58:02;8.60;;;7.30;;
1136;SDS011;557;48.466;7.950;2023-02-28T11:01:00;10.63;;;6.87;;
1136;SDS011;557;48.466;7.950;2023-02-28T11:03:49;7.27;;;6.37;;
1136;SDS011;557;48.466;7.950;2023-02-28T11:06:37;8.70;;;6.60;;
1136;SDS011;557;48.466;7.950;2023-02-28T11:09:27;7.33;;;6.60;;
1136;SDS011;557;48.466;7.950;2023-02-28T11:12:19;8.37;;;6.90;;
1136;SDS011;557;48.466;7.950;2023-02-28T11:15:18;7.63;;;6.57;;
1136;SDS011;557;48.466;7.950;2023-02-28T11:18:18;12.70;;;7.93;;
1136;SDS011;557;48.466;7.950;2023-02-28T11:21:14;9.20;;;7.63;;
1136;SDS011;557;48.466;7.950;2023-02-28T11:24:07;9.60;;;6.67;;
1136;SDS011;557;48.466;7.950;2023-02-28T11:27:10;9.13;;;7.87;;
1136;SDS011;557;48.466;7.950;2023-02-28T11:30:29;8.33;;;7.30;;
1136;SDS011;557;48.466;7.950;2023-02-28T11:33:22;9.20;;;7.30;;
1136;SDS011;557;48.466;7.950;2023-02-28T11:36:14;8.90;;;7.53;;
1136;SDS011;557;48.466;7.950;2023-02-28T11:39:09;9.17;;;6.83;;
1136;SDS011;557;48.466;7.950;2023-02-28T11:42:07;11.87;;;8.10;;
1136;SDS011;557;48.466;7.950;2023-02-28T11:45:12;11.23;;;8.30;;
1136;SDS011;557;48.466;7.950;2023-02-28T11:48:08;10.53;;;8.03;;
1136;SDS011;557;48.466;7.950;2023-02-28T11:51:06;11.17;;;8.10;;
1136;SDS011;557;48.466;7.950;2023-02-28T11:54:08;9.90;;;8.27;;
1136;SDS011;557;48.466;7.950;2023-02-28T11:57:15;10.00;;;8.23;;
1136;SDS011;557;48.466;7.950;2023-02-28T12:00:15;12.00;;;10.00;;
1136;SDS011;557;48.466;7.950;2023-02-28T12:03:26;10.93;;;9.00;;
1136;SDS011;557;48.466;7.950;2023-02-28T12:06:19;11.03;;;9.57;;
1136;SDS011;557;48.466;7.950;2023-02-28T12:09:20;10.43;;;9.43;;
1136;SDS011;557;48.466;7.950;2023-02-28T12:12:27;10.67;;;9.57;;
1136;SDS011;557;48.466;7.950;2023-02-28T12:15:24;10.27;;;9.30;;
1136;SDS011;557;48.466;7.950;2023-02-28T12:18:31;11.03;;;9.93;;
1136;SDS011;557;48.466;7.950;2023-02-28T12:21:31;10.80;;;9.80;;
1136;SDS011;557;48.466;7.950;2023-02-28T12:24:39;11.70;;;10.50;;
1136;SDS011;557;48.466;7.950;2023-02-28T12:27:47;11.30;;;10.20;;
1136;SDS011;557;48.466;7.950;2023-02-28T12:30:35;13.30;;;10.73;;
1136;SDS011;557;48.466;7.950;2023-02-28T12:33:31;10.80;;;9.80;;
1136;SDS011;557;48.466;7.950;2023-02-28T12:36:21;12.33;;;11.33;;
1136;SDS011;557;48.466;7.950;2023-02-28T12:39:12;13.83;;;12.40;;
1136;SDS011;557;48.466;7.950;2023-02-28T12:42:05;14.30;;;11.70;;
1136;SDS011;557;48.466;7.950;2023-02-28T12:44:59;14.00;;;12.70;;
1136;SDS011;557;48.466;7.950;2023-02-28T12:47:49;12.57;;;11.47;;
1136;SDS011;557;48.466;7.950;2023-02-28T12:50:41;12.23;;;11.07;;
1136;SDS011;557;48.466;7.950;2023-02-28T12:53:31;13.40;;;12.03;;
1136;SDS011;557;48.466;7.950;2023-02-28T12:56:31;14.13;;;12.90;;
1136;SDS011;557;48.466;7.950;2023-02-28T12:59:27;13.53;;;12.40;;
1136;SDS011;557;48.466;7.950;2023-02-28T13:05:52;14.30;;;12.97;;
1136;SDS011;557;48.466;7.950;2023-02-28T13:11:56;13.27;;;12.07;;
1136;SDS011;557;48.466;7.950;2023-02-28T13:14:46;13.67;;;12.47;;
1136;SDS011;557;48.466;7.950;2023-02-28T13:17:35;13.30;;;12.30;;
1136;SDS011;557;48.466;7.950;2023-02-28T13:20:24;13.33;;;12.10;;
1136;SDS011;557;48.466;7.950;2023-02-28T13:29:57;13.73;;;12.63;;
1136;SDS011;557;48.466;7.950;2023-02-28T13:32:45;13.70;;;12.40;;
1136;SDS011;557;48.466;7.950;2023-02-28T13:35:37;13.37;;;12.37;;
1136;SDS011;557;48.466;7.950;2023-02-28T13:38:35;13.70;;;12.70;;
1136;SDS011;557;48.466;7.950;2023-02-28T13:41:43;14.60;;;13.50;;
1136;SDS011;557;48.466;7.950;2023-02-28T13:44:31;13.77;;;12.70;;
1136;SDS011;557;48.466;7.950;2023-02-28T13:48:04;15.43;;;14.13;;
1136;SDS011;557;48.466;7.950;2023-02-28T13:54:22;14.93;;;13.83;;
1136;SDS011;557;48.466;7.950;2023-02-28T13:57:29;15.40;;;14.20;;
1136;SDS011;557;48.466;7.950;2023-02-28T14:00:23;15.30;;;14.20;;
1136;SDS011;557;48.466;7.950;2023-02-28T14:03:31;16.70;;;15.10;;
1136;SDS011;557;48.466;7.950;2023-02-28T14:06:30;16.33;;;15.20;;
1136;SDS011;557;48.466;7.950;2023-02-28T14:09:21;16.90;;;15.60;;
1136;SDS011;557;48.466;7.950;2023-02-28T14:15:46;19.10;;;17.50;;
1136;SDS011;557;48.466;7.950;2023-02-28T14:18:38;18.90;;;17.50;;
1136;SDS011;557;48.466;7.950;2023-02-28T14:21:29;18.37;;;17.07;;
1136;SDS011;557;48.466;7.950;2023-02-28T14:24:30;18.23;;;16.93;;
1136;SDS011;557;48.466;7.950;2023-02-28T14:27:32;18.87;;;17.57;;
1136;SDS011;557;48.466;7.950;2023-02-28T14:33:46;18.97;;;17.57;;
1136;SDS011;557;48.466;7.950;2023-02-28T14:36:48;19.00;;;17.70;;
1136;SDS011;557;48.466;7.950;2023-02-28T14:39:36;18.57;;;17.10;;
1136;SDS011;557;48.466;7.950;2023-02-28T14:42:29;18.07;;;16.90;;
1136;SDS011;557;48.466;7.950;2023-02-28T14:45:18;18.60;;;16.97;;
1136;SDS011;557;48.466;7.950;2023-02-28T14:48:08;18.60;;;17.17;;
1136;SDS011;557;48.466;7.950;2023-02-28T14:50:58;18.30;;;17.00;;
1136;SDS011;557;48.466;7.950;2023-02-28T14:53:48;18.60;;;17.40;;
1136;SDS011;557;48.466;7.950;2023-02-28T14:56:38;19.73;;;18.13;;
1136;SDS011;557;48.466;7.950;2023-02-28T14:59:27;17.93;;;16.60;;
1136;SDS011;557;48.466;7.950;2023-02-28T15:02:16;18.17;;;16.90;;
1136;SDS011;557;48.466;7.950;2023-02-28T15:05:19;19.20;;;17.67;;
1136;SDS011;557;48.466;7.950;2023-02-28T15:08:12;18.20;;;16.80;;
1136;SDS011;557;48.466;7.950;2023-02-28T15:11:02;18.70;;;17.40;;
1136;SDS011;557;48.466;7.950;2023-02-28T15:13:52;17.40;;;16.17;;
1136;SDS011;557;48.466;7.950;2023-02-28T15:16:42;18.90;;;17.40;;
1136;SDS011;557;48.466;7.950;2023-02-28T15:19:33;18.40;;;17.00;;
1136;SDS011;557;48.466;7.950;2023-02-28T15:22:25;17.67;;;16.30;;
1136;SDS011;557;48.466;7.950;2023-02-28T15:25:19;17.80;;;16.50;;
1136;SDS011;557;48.466;7.950;2023-02-28T15:28:09;18.33;;;17.03;;
1136;SDS011;557;48.466;7.950;2023-02-28T15:31:01;17.70;;;16.30;;
1136;SDS011;557;48.466;7.950;2023-02-28T15:34:14;17.90;;;16.40;;
1136;SDS011;557;48.466;7.950;2023-02-28T15:37:07;16.83;;;15.73;;
1136;SDS011;557;48.466;7.950;2023-02-28T15:40:15;18.47;;;17.07;;
1136;SDS011;557;48.466;7.950;2023-02-28T15:43:14;16.67;;;15.43;;
1136;SDS011;557;48.466;7.950;2023-02-28T15:46:03;18.00;;;16.73;;
1136;SDS011;557;48.466;7.950;2023-02-28T15:48:53;17.00;;;15.80;;
1136;SDS011;557;48.466;7.950;2023-02-28T15:51:42;17.13;;;15.80;;
1136;SDS011;557;48.466;7.950;2023-02-28T15:54:31;17.27;;;15.80;;
1136;SDS011;557;48.466;7.950;2023-02-28T15:57:21;17.40;;;15.83;;
1136;SDS011;557;48.466;7.950;2023-02-28T16:00:13;16.67;;;15.37;;
1136;SDS011;557;48.466;7.950;2023-02-28T16:06:26;17.30;;;15.93;;
1136;SDS011;557;48.466;7.950;2023-02-28T16:09:20;17.13;;;15.63;;
1136;SDS011;557;48.466;7.950;2023-02-28T16:12:08;17.43;;;15.73;;
1136;SDS011;557;48.466;7.950;2023-02-28T16:14:59;15.90;;;14.60;;
1136;SDS011;557;48.466;7.950;2023-02-28T16:17:51;16.90;;;15.57;;
1136;SDS011;557;48.466;7.950;2023-02-28T16:20:39;16.30;;;15.07;;
1136;SDS011;557;48.466;7.950;2023-02-28T16:23:27;16.93;;;15.23;;
1136;SDS011;557;48.466;7.950;2023-02-28T16:26:16;16.10;;;14.70;;
1136;SDS011;557;48.466;7.950;2023-02-28T16:29:08;16.73;;;15.27;;
1136;SDS011;557;48.466;7.950;2023-02-28T16:32:00;16.80;;;15.27;;
1136;SDS011;557;48.466;7.950;2023-02-28T16:34:49;16.33;;;14.83;;
1136;SDS011;557;48.466;7.950;2023-02-28T16:37:36;15.93;;;14.50;;
1136;SDS011;557;48.466;7.950;2023-02-28T16:40:24;15.17;;;13.67;;
1136;SDS011;557;48.466;7.950;2023-02-28T16:43:15;16.47;;;14.97;;
1136;SDS011;557;48.466;7.950;2023-02-28T16:46:08;16.50;;;15.00;;
1136;SDS011;557;48.466;7.950;2023-02-28T16:48:57;15.87;;;14.53;;
1136;SDS011;557;48.466;7.950;2023-02-28T16:51:46;15.80;;;14.40;;
1136;SDS011;557;48.466;7.950;2023-02-28T16:54:34;16.87;;;15.50;;
1136;SDS011;557;48.466;7.950;2023-02-28T16:57:22;16.30;;;14.80;;
1136;SDS011;557;48.466;7.950;2023-02-28T17:00:11;17.20;;;15.50;;
1136;SDS011;557;48.466;7.950;2023-02-28T17:03:00;15.07;;;13.87;;
1136;SDS011;557;48.466;7.950;2023-02-28T17:05:48;16.20;;;14.60;;
1136;SDS011;557;48.466;7.950;2023-02-28T17:08:37;16.43;;;15.10;;
1136;SDS011;557;48.466;7.950;2023-02-28T17:11:24;18.73;;;17.10;;
1136;SDS011;557;48.466;7.950;2023-02-28T17:14:12;16.57;;;14.97;;
1136;SDS011;557;48.466;7.950;2023-02-28T17:16:59;16.50;;;15.00;;
1136;SDS011;557;48.466;7.950;2023-02-28T17:19:47;17.60;;;15.80;;
1136;SDS011;557;48.466;7.950;2023-02-28T17:22:34;20.37;;;16.50;;
1136;SDS011;557;48.466;7.950;2023-02-28T17:25:23;16.83;;;15.23;;
1136;SDS011;557;48.466;7.950;2023-02-28T17:28:11;20.80;;;18.63;;
1136;SDS011;557;48.466;7.950;2023-02-28T17:30:58;19.77;;;16.00;;
1136;SDS011;557;48.466;7.950;2023-02-28T17:33:45;16.97;;;15.40;;
1136;SDS011;557;48.466;7.950;2023-02-28T17:36:33;16.40;;;14.80;;
1136;SDS011;557;48.466;7.950;2023-02-28T17:39:20;16.10;;;14.37;;
1136;SDS011;557;48.466;7.950;2023-02-28T17:42:11;16.83;;;14.70;;
1136;SDS011;557;48.466;7.950;2023-02-28T17:44:58;15.17;;;13.63;;
1136;SDS011;557;48.466;7.950;2023-02-28T17:47:47;15.10;;;13.70;;
1136;SDS011;557;48.466;7.950;2023-02-28T17:50:36;15.03;;;13.53;;
1136;SDS011;557;48.466;7.950;2023-02-28T17:53:23;14.53;;;13.10;;
1136;SDS011;557;48.466;7.950;2023-02-28T17:56:12;14.80;;;13.30;;
1136;SDS011;557;48.466;7.950;2023-02-28T17:59:03;14.67;;;13.27;;
1136;SDS011;557;48.466;7.950;2023-02-28T18:01:50;13.30;;;12.03;;
1136;SDS011;557;48.466;7.950;2023-02-28T18:04:37;14.07;;;12.77;;
1136;SDS011;557;48.466;7.950;2023-02-28T18:07:25;14.57;;;13.07;;
1136;SDS011;557;48.466;7.950;2023-02-28T18:10:13;15.23;;;12.57;;
1136;SDS011;557;48.466;7.950;2023-02-28T18:13:04;15.83;;;12.97;;
1136;SDS011;557;48.466;7.950;2023-02-28T18:15:53;16.00;;;12.30;;
1136;SDS011;557;48.466;7.950;2023-02-28T18:18:40;13.43;;;12.03;;
1136;SDS011;557;48.466;7.950;2023-02-28T18:21:28;15.27;;;13.53;;
1136;SDS011;557;48.466;7.950;2023-02-28T18:24:16;16.67;;;12.77;;
1136;SDS011;557;48.466;7.950;2023-02-28T18:27:09;18.00;;;13.20;;
1136;SDS011;557;48.466;7.950;2023-02-28T18:29:56;14.70;;;13.20;;